Time;durP1;ratioP1;P1;durP2;ratioP2;P2;SDS_P1;SDS_P2;PMS_P1;PMS_P2;Temp;Humidity;BMP_temperature;BMP_pressure;BME280_temperature;BME280_humidity;BME280_pressure;Samples;Min_cycle;Max_cycle;Signal;HPM_P1;HPM_P2
2020/12/17 00:00:12;;;;;;;16.20;12.53;;;6.00;99.90;;;;;;5063415;28;20216;-63
2020/12/17 00:02:40;;;;;;;15.23;11.83;;;6.00;99.90;;;;;;5064516;28;20255;-65
2020/12/17 00:05:06;;;;;;;16.03;12.20;;;6.10;99.90;;;;;;5065205;28;20299;-64
2020/12/17 00:07:33;;;;;;;15.03;12.13;;;6.10;99.90;;;;;;5066251;28;20209;-64
2020/12/17 00:10:00;;;;;;;17.73;12.07;;;6.20;99.90;;;;;;5068260;28;20206;-65
2020/12/17 00:12:26;;;;;;;17.57;12.33;;;6.20;99.90;;;;;;5069829;28;20205;-65
2020/12/17 00:14:52;;;;;;;16.20;12.10;;;6.10;99.90;;;;;;5065000;28;20221;-64
2020/12/17 00:17:18;;;;;;;15.40;12.07;;;6.20;99.90;;;;;;5055578;28;20213;-64
2020/12/17 00:19:44;;;;;;;15.70;11.93;;;6.20;99.90;;;;;;5054664;28;20700;-65
2020/12/17 00:22:11;;;;;;;14.07;11.50;;;6.30;99.90;;;;;;5054588;28;20229;-64
2020/12/17 00:24:38;;;;;;;15.73;12.10;;;6.40;99.90;;;;;;5054994;28;20221;-64
2020/12/17 00:27:04;;;;;;;16.60;12.27;;;6.40;99.90;;;;;;5055996;28;20201;-66
2020/12/17 00:29:30;;;;;;;15.87;12.30;;;6.40;99.90;;;;;;5054549;28;20210;-64
2020/12/17 00:31:56;;;;;;;14.67;10.93;;;6.40;99.90;;;;;;5055541;28;20605;-64
2020/12/17 00:34:23;;;;;;;13.83;10.90;;;6.30;99.90;;;;;;5053509;28;20229;-63
2020/12/17 00:36:52;;;;;;;13.77;11.27;;;6.30;99.90;;;;;;5053327;28;20723;-64
2020/12/17 00:39:19;;;;;;;14.80;11.10;;;6.40;99.90;;;;;;5053080;28;20202;-63
2020/12/17 00:41:47;;;;;;;15.60;11.13;;;6.30;99.90;;;;;;5053882;28;20229;-64
2020/12/17 00:44:13;;;;;;;13.17;10.63;;;6.20;99.90;;;;;;5058485;28;20230;-64
2020/12/17 00:46:40;;;;;;;14.73;11.47;;;6.10;99.90;;;;;;5055476;28;20720;-63
2020/12/17 00:49:06;;;;;;;13.53;11.43;;;6.10;99.90;;;;;;5056387;28;20212;-64
2020/12/17 00:51:32;;;;;;;15.17;11.10;;;6.10;99.90;;;;;;5056314;28;20723;-64
2020/12/17 00:53:58;;;;;;;14.30;11.17;;;6.00;99.90;;;;;;5058265;28;20241;-64
2020/12/17 00:56:24;;;;;;;16.17;11.00;;;5.90;99.90;;;;;;5057818;28;20205;-65
2020/12/17 00:58:51;;;;;;;13.93;11.37;;;5.80;99.90;;;;;;5057812;28;20214;-64
2020/12/17 01:01:18;;;;;;;15.00;10.53;;;5.90;99.90;;;;;;5060233;28;20237;-64
2020/12/17 01:03:44;;;;;;;14.70;11.57;;;5.90;99.90;;;;;;5059577;28;20241;-63
2020/12/17 01:06:10;;;;;;;14.90;11.97;;;5.90;99.90;;;;;;5056144;28;20205;-63
2020/12/17 01:08:37;;;;;;;15.40;11.60;;;6.00;99.90;;;;;;5053833;28;20228;-63
2020/12/17 01:11:03;;;;;;;13.40;11.20;;;6.00;99.90;;;;;;5054652;28;20197;-62
2020/12/17 01:13:30;;;;;;;13.43;11.03;;;6.10;99.90;;;;;;5054326;28;20225;-63
2020/12/17 01:15:57;;;;;;;13.37;11.40;;;6.10;99.90;;;;;;5056212;28;20669;-63
2020/12/17 01:18:23;;;;;;;14.37;11.53;;;6.20;99.90;;;;;;5054661;28;20221;-63
2020/12/17 01:20:49;;;;;;;14.60;11.57;;;6.20;99.90;;;;;;5057322;28;20202;-63
2020/12/17 01:23:16;;;;;;;14.70;10.87;;;6.20;99.90;;;;;;5066120;28;20216;-63
2020/12/17 01:25:42;;;;;;;14.07;11.07;;;6.10;99.90;;;;;;5072751;28;20206;-63
2020/12/17 01:28:12;;;;;;;18.27;12.80;;;6.00;99.90;;;;;;5068807;28;20209;-63
2020/12/17 01:30:39;;;;;;;14.37;10.90;;;5.90;99.90;;;;;;5065645;28;20474;-64
2020/12/17 01:33:07;;;;;;;12.33;10.40;;;5.80;99.90;;;;;;5068268;28;20217;-64
2020/12/17 01:35:33;;;;;;;13.17;11.03;;;5.70;99.90;;;;;;5067089;28;20235;-65
2020/12/17 01:38:00;;;;;;;13.67;11.00;;;5.60;99.90;;;;;;5070042;28;20212;-65
2020/12/17 01:40:26;;;;;;;14.23;10.90;;;5.60;99.90;;;;;;5070425;28;20220;-64
2020/12/17 01:42:52;;;;;;;15.47;11.90;;;5.50;99.90;;;;;;5071434;28;20228;-64
2020/12/17 01:45:19;;;;;;;15.60;11.57;;;5.50;99.90;;;;;;5072094;28;20213;-64
2020/12/17 01:47:48;;;;;;;13.40;11.53;;;5.60;99.90;;;;;;5067518;28;20209;-63
2020/12/17 01:50:15;;;;;;;13.53;10.70;;;5.50;99.90;;;;;;5052627;28;20206;-63
2020/12/17 01:52:41;;;;;;;14.17;11.43;;;5.50;99.90;;;;;;5052514;28;20202;-64
2020/12/17 01:55:07;;;;;;;15.10;11.33;;;5.60;99.90;;;;;;5051443;28;20229;-63
2020/12/17 01:57:35;;;;;;;16.10;11.37;;;5.60;99.90;;;;;;5052410;28;20267;-63
2020/12/17 02:00:06;;;;;;;14.33;11.57;;;5.60;99.90;;;;;;5052183;28;20740;-63
2020/12/17 02:02:34;;;;;;;15.00;10.93;;;5.60;99.90;;;;;;5052124;28;20229;-64
2020/12/17 02:05:01;;;;;;;15.00;11.90;;;5.50;99.90;;;;;;5051614;28;20244;-64
2020/12/17 02:07:29;;;;;;;14.50;11.20;;;5.60;99.90;;;;;;5051908;28;20209;-64
2020/12/17 02:09:55;;;;;;;13.80;10.87;;;5.70;99.90;;;;;;5052041;28;20287;-64
2020/12/17 02:12:21;;;;;;;15.20;10.87;;;5.70;99.90;;;;;;5052121;28;20198;-64
2020/12/17 02:14:47;;;;;;;12.97;10.53;;;5.70;99.90;;;;;;5051321;28;20675;-64
2020/12/17 02:17:14;;;;;;;14.17;10.87;;;5.80;99.90;;;;;;5051926;28;20653;-64
2020/12/17 02:19:40;;;;;;;15.23;11.77;;;5.80;99.90;;;;;;5051519;28;20209;-63
2020/12/17 02:22:06;;;;;;;14.87;11.53;;;5.80;99.90;;;;;;5051079;28;20226;-63
2020/12/17 02:24:33;;;;;;;17.07;13.07;;;5.80;99.90;;;;;;5051076;28;20226;-63
2020/12/17 02:27:00;;;;;;;13.40;10.87;;;5.80;99.90;;;;;;5051470;28;20638;-63
2020/12/17 02:29:26;;;;;;;13.70;11.40;;;5.80;99.90;;;;;;5050755;28;20212;-62
2020/12/17 02:31:52;;;;;;;14.60;12.07;;;5.80;99.90;;;;;;5051333;28;20206;-65
2020/12/17 02:34:18;;;;;;;15.77;11.57;;;5.70;99.90;;;;;;5051245;28;20233;-62
2020/12/17 02:36:44;;;;;;;14.03;11.37;;;5.70;99.90;;;;;;5051941;28;20255;-63
2020/12/17 02:39:11;;;;;;;14.10;11.70;;;5.60;99.90;;;;;;5051497;28;20771;-63
2020/12/17 02:41:38;;;;;;;13.70;11.43;;;5.50;99.90;;;;;;5052187;28;20279;-63
2020/12/17 02:44:04;;;;;;;15.17;11.50;;;5.40;99.90;;;;;;5051837;28;20225;-62
2020/12/17 02:46:30;;;;;;;14.63;11.73;;;5.30;99.90;;;;;;5052607;28;20206;-63
2020/12/17 02:48:57;;;;;;;14.27;10.63;;;5.20;99.90;;;;;;5061446;28;20205;-61
2020/12/17 02:51:23;;;;;;;14.80;11.70;;;5.00;99.90;;;;;;5063207;28;20212;-63
2020/12/17 02:53:49;;;;;;;15.93;11.87;;;4.90;99.90;;;;;;5062442;28;20225;-62
2020/12/17 02:56:16;;;;;;;16.00;11.77;;;4.80;99.90;;;;;;5062313;28;20213;-63
2020/12/17 02:58:43;;;;;;;13.77;11.77;;;4.80;99.90;;;;;;5062206;28;20214;-63
2020/12/17 03:01:10;;;;;;;16.43;11.73;;;4.90;99.90;;;;;;5061444;28;20221;-63
2020/12/17 03:03:37;;;;;;;16.43;12.27;;;4.90;99.90;;;;;;5082503;22;20244;-62
2020/12/17 03:06:04;;;;;;;14.53;11.47;;;4.90;99.90;;;;;;5072112;28;20205;-63
2020/12/17 03:08:30;;;;;;;14.60;11.47;;;5.00;99.90;;;;;;5073647;28;20579;-62
2020/12/17 03:10:56;;;;;;;14.73;11.97;;;4.90;99.90;;;;;;5074366;28;20213;-61
2020/12/17 03:13:23;;;;;;;15.00;11.30;;;4.90;99.90;;;;;;5074002;28;20257;-62
2020/12/17 03:15:50;;;;;;;16.83;11.83;;;4.80;99.90;;;;;;5074230;28;20473;-61
2020/12/17 03:18:16;;;;;;;16.83;12.47;;;4.60;99.90;;;;;;5073949;28;20239;-61
2020/12/17 03:20:42;;;;;;;16.93;12.63;;;4.60;99.90;;;;;;5073385;28;20299;-62
2020/12/17 03:23:09;;;;;;;17.87;12.67;;;4.60;99.90;;;;;;5073988;28;20316;-61
2020/12/17 03:25:35;;;;;;;14.43;11.53;;;4.60;99.90;;;;;;5073575;28;20266;-62
2020/12/17 03:28:01;;;;;;;16.37;12.07;;;4.70;99.90;;;;;;5073390;28;20205;-61
2020/12/17 03:30:28;;;;;;;14.97;11.53;;;4.70;99.90;;;;;;5073593;28;20239;-61
2020/12/17 03:32:55;;;;;;;13.63;11.40;;;4.70;99.90;;;;;;5073425;28;20201;-61
2020/12/17 03:35:21;;;;;;;16.57;11.47;;;4.70;99.90;;;;;;5072868;28;20599;-62
2020/12/17 03:37:47;;;;;;;14.87;11.43;;;4.70;99.90;;;;;;5073124;28;20205;-61
2020/12/17 03:40:13;;;;;;;13.87;11.57;;;4.70;99.90;;;;;;5073619;28;20212;-61
2020/12/17 03:42:39;;;;;;;14.23;11.40;;;4.70;99.90;;;;;;5073370;28;20259;-62
2020/12/17 03:45:06;;;;;;;13.07;11.13;;;4.60;99.90;;;;;;5072842;28;20720;-61
2020/12/17 03:47:32;;;;;;;15.17;11.33;;;4.50;99.90;;;;;;5073232;28;20695;-62
2020/12/17 03:50:00;;;;;;;16.87;12.03;;;4.40;99.90;;;;;;5073450;28;20239;-62
2020/12/17 03:52:26;;;;;;;13.07;10.60;;;4.40;99.90;;;;;;5073575;28;20624;-62
2020/12/17 03:54:52;;;;;;;15.17;11.23;;;4.30;99.90;;;;;;5072849;28;20709;-62
2020/12/17 03:57:18;;;;;;;15.53;11.60;;;4.20;99.90;;;;;;5073492;28;20205;-62
2020/12/17 03:59:44;;;;;;;13.30;10.53;;;4.30;99.90;;;;;;5072818;28;20258;-61
2020/12/17 04:02:10;;;;;;;14.47;11.87;;;4.40;99.90;;;;;;5072849;28;20231;-62
2020/12/17 04:04:37;;;;;;;13.53;10.80;;;4.40;99.90;;;;;;5072849;28;20228;-61
2020/12/17 04:07:04;;;;;;;13.57;10.53;;;4.40;99.90;;;;;;5073287;28;20201;-62
2020/12/17 04:09:30;;;;;;;13.50;10.63;;;4.40;99.90;;;;;;5072822;28;20868;-62
2020/12/17 04:11:56;;;;;;;13.20;10.60;;;4.30;99.90;;;;;;5073378;28;20205;-61
2020/12/17 04:14:22;;;;;;;12.10;9.63;;;4.30;99.90;;;;;;5072735;28;20712;-61
2020/12/17 04:16:48;;;;;;;15.43;11.33;;;4.30;99.90;;;;;;5072541;28;20201;-61
2020/12/17 04:19:14;;;;;;;14.20;10.70;;;4.30;99.90;;;;;;5073072;28;20232;-62
2020/12/17 04:21:41;;;;;;;14.43;10.07;;;4.20;99.90;;;;;;5072876;28;20224;-62
2020/12/17 04:24:08;;;;;;;12.60;10.30;;;4.20;99.90;;;;;;5072571;28;20229;-62
2020/12/17 04:26:34;;;;;;;12.57;9.83;;;4.10;99.90;;;;;;5073125;28;20209;-62
2020/12/17 04:29:01;;;;;;;10.83;8.87;;;4.10;99.90;;;;;;5072525;28;20216;-62
2020/12/17 04:31:27;;;;;;;12.60;10.00;;;4.00;99.90;;;;;;5072613;28;20207;-62
2020/12/17 04:33:54;;;;;;;12.80;9.87;;;4.10;99.90;;;;;;5072197;28;20225;-62
2020/12/17 04:36:20;;;;;;;14.87;11.17;;;4.10;99.90;;;;;;5072434;28;20585;-62
2020/12/17 04:38:46;;;;;;;12.27;9.47;;;4.10;99.90;;;;;;5072019;28;20216;-61
2020/12/17 04:41:17;;;;;;;13.70;10.13;;;4.10;99.90;;;;;;5072251;28;20209;-62
2020/12/17 04:43:44;;;;;;;13.27;10.10;;;4.10;99.90;;;;;;5071773;28;20608;-62
2020/12/17 04:46:14;;;;;;;12.87;10.03;;;4.20;99.90;;;;;;5071936;28;20209;-61
2020/12/17 04:48:42;;;;;;;11.87;9.40;;;4.20;99.90;;;;;;5071787;28;20290;-62
2020/12/17 04:51:08;;;;;;;12.30;9.77;;;4.20;99.90;;;;;;5072159;28;20233;-61
2020/12/17 04:53:37;;;;;;;11.07;9.40;;;4.30;99.90;;;;;;5071596;28;20201;-62
2020/12/17 04:56:03;;;;;;;11.57;9.50;;;4.30;99.90;;;;;;5071907;28;20569;-63
2020/12/17 04:58:32;;;;;;;11.43;9.10;;;4.40;99.90;;;;;;5071407;28;20212;-61
2020/12/17 05:00:58;;;;;;;12.27;9.77;;;4.50;99.90;;;;;;5072026;28;20201;-63
2020/12/17 05:03:24;;;;;;;12.00;8.93;;;4.50;99.90;;;;;;5071517;28;20585;-62
2020/12/17 05:05:51;;;;;;;11.60;9.50;;;4.50;99.90;;;;;;5071933;28;20282;-62
2020/12/17 05:08:19;;;;;;;11.57;9.43;;;4.50;99.90;;;;;;5071569;28;20235;-62
2020/12/17 05:10:45;;;;;;;10.73;9.07;;;4.60;99.90;;;;;;5071793;28;20205;-62
2020/12/17 05:13:12;;;;;;;13.30;8.67;;;4.50;99.90;;;;;;5071873;28;20204;-62
2020/12/17 05:15:39;;;;;;;10.30;8.77;;;4.50;99.90;;;;;;5071234;28;20716;-61
2020/12/17 05:18:07;;;;;;;12.13;8.90;;;4.40;99.90;;;;;;5071310;28;20209;-62
2020/12/17 05:20:35;;;;;;;10.17;8.43;;;4.40;99.90;;;;;;5071977;28;20278;-62
2020/12/17 05:23:03;;;;;;;11.17;8.40;;;4.30;99.90;;;;;;5071582;28;20228;-62
2020/12/17 05:25:31;;;;;;;11.13;8.80;;;4.30;99.90;;;;;;5070979;28;20224;-62
2020/12/17 05:27:57;;;;;;;9.73;8.23;;;4.20;99.90;;;;;;5071356;28;20238;-62
2020/12/17 05:30:31;;;;;;;11.00;9.00;;;4.20;99.90;;;;;;5070428;28;20405;-62
2020/12/17 05:32:58;;;;;;;10.87;8.90;;;4.30;99.90;;;;;;5071188;28;20240;-61
2020/12/17 05:35:24;;;;;;;11.17;9.20;;;4.30;99.90;;;;;;5071031;28;20269;-62
2020/12/17 05:37:51;;;;;;;10.73;8.17;;;4.30;99.90;;;;;;5070840;28;20211;-61
2020/12/17 05:40:17;;;;;;;9.83;8.83;;;4.40;99.90;;;;;;5071561;28;20582;-61
2020/12/17 05:42:45;;;;;;;10.80;8.50;;;4.50;99.90;;;;;;5071282;28;20228;-61
2020/12/17 05:45:29;;;;;;;10.73;8.83;;;4.50;99.90;;;;;;5070701;28;20233;-61
2020/12/17 05:48:13;;;;;;;10.87;9.07;;;4.60;99.90;;;;;;5071012;28;20775;-61
2020/12/17 05:50:54;;;;;;;11.47;9.43;;;4.70;99.90;;;;;;5071168;28;20209;-62
2020/12/17 05:53:22;;;;;;;12.10;9.13;;;4.60;99.90;;;;;;5071184;28;20205;-62
2020/12/17 05:55:52;;;;;;;11.10;8.80;;;4.60;99.90;;;;;;5070985;28;20282;-61
2020/12/17 05:58:18;;;;;;;10.43;8.53;;;4.50;99.90;;;;;;5070617;28;20205;-61
2020/12/17 06:00:44;;;;;;;12.90;9.07;;;4.50;99.90;;;;;;5070732;28;20208;-61
2020/12/17 06:03:12;;;;;;;9.83;8.43;;;4.50;99.90;;;;;;5070556;28;20621;-62
2020/12/17 06:05:43;;;;;;;11.80;8.50;;;4.50;99.90;;;;;;5070481;28;20654;-62
2020/12/17 06:08:16;;;;;;;11.63;8.73;;;4.50;99.90;;;;;;5070841;28;20345;-62
2020/12/17 06:10:47;;;;;;;11.10;8.60;;;4.60;99.90;;;;;;5071229;28;20243;-62
2020/12/17 06:13:14;;;;;;;12.33;8.80;;;4.60;99.90;;;;;;5070753;28;20665;-62
2020/12/17 06:15:45;;;;;;;11.00;8.33;;;4.80;99.90;;;;;;5070053;28;20652;-62
2020/12/17 06:18:13;;;;;;;11.10;8.73;;;4.80;99.90;;;;;;5070482;28;20615;-61
2020/12/17 06:20:43;;;;;;;11.33;8.63;;;4.90;99.90;;;;;;5070706;28;20204;-62
2020/12/17 06:23:13;;;;;;;11.30;8.97;;;4.90;99.90;;;;;;5070537;28;20256;-62
2020/12/17 06:25:39;;;;;;;11.17;8.53;;;5.00;99.90;;;;;;5070523;28;20256;-62
2020/12/17 06:28:15;;;;;;;12.07;9.03;;;5.20;99.90;;;;;;5070117;28;20262;-62
2020/12/17 06:30:45;;;;;;;9.67;7.30;;;5.30;99.90;;;;;;5070626;28;20215;-63
2020/12/17 06:33:12;;;;;;;10.43;7.90;;;5.40;99.90;;;;;;5070474;28;20200;-62
2020/12/17 06:35:51;;;;;;;10.63;8.53;;;5.40;99.90;;;;;;5070497;28;20232;-62
2020/12/17 06:38:23;;;;;;;9.10;7.80;;;5.60;99.90;;;;;;5070197;28;20217;-62
2020/12/17 06:40:49;;;;;;;8.50;7.40;;;5.80;99.90;;;;;;5072138;28;20205;-62
2020/12/17 06:43:29;;;;;;;9.67;8.20;;;6.10;99.90;;;;;;5074384;28;20227;-61
2020/12/17 06:45:56;;;;;;;11.00;8.20;;;6.30;99.90;;;;;;5074513;28;20672;-62
2020/12/17 06:48:30;;;;;;;9.23;7.50;;;6.50;99.90;;;;;;5074115;28;20695;-63
2020/12/17 06:50:57;;;;;;;11.87;8.87;;;6.70;99.90;;;;;;5074341;28;20204;-62
2020/12/17 06:53:37;;;;;;;8.57;7.07;;;6.80;99.90;;;;;;5073877;28;20250;-63
2020/12/17 06:56:03;;;;;;;9.33;7.63;;;6.80;99.90;;;;;;5074487;28;20366;-62
2020/12/17 06:58:30;;;;;;;9.80;7.60;;;6.90;99.90;;;;;;5075085;28;20208;-63
2020/12/17 07:00:56;;;;;;;9.47;7.33;;;6.90;99.90;;;;;;5075459;28;20695;-63
2020/12/17 07:03:46;;;;;;;8.30;6.90;;;6.90;99.90;;;;;;5074465;28;20700;-63
2020/12/17 07:06:17;;;;;;;8.33;6.97;;;6.90;99.90;;;;;;5074354;28;20647;-63
2020/12/17 07:08:45;;;;;;;9.10;6.73;;;6.90;99.90;;;;;;5074612;28;20228;-63
2020/12/17 07:11:42;;;;;;;8.40;6.90;;;6.80;99.90;;;;;;5074305;28;20258;-63
2020/12/17 07:14:11;;;;;;;9.03;7.43;;;6.60;99.90;;;;;;5064139;28;20228;-63
2020/12/17 07:16:38;;;;;;;8.93;7.30;;;6.50;99.90;;;;;;5074083;28;20205;-64
2020/12/17 07:19:25;;;;;;;8.93;7.30;;;6.40;99.90;;;;;;5073897;28;20205;-62
2020/12/17 07:21:59;;;;;;;8.77;6.87;;;6.40;99.90;;;;;;5073505;28;20220;-63
2020/12/17 07:24:28;;;;;;;8.50;6.83;;;6.50;99.90;;;;;;5073363;28;20228;-63
2020/12/17 07:26:57;;;;;;;7.60;6.80;;;6.70;99.90;;;;;;5073988;28;20216;-63
2020/12/17 07:29:59;;;;;;;7.73;6.40;;;6.80;99.90;;;;;;5073537;28;20213;-64
2020/12/17 07:32:31;;;;;;;9.60;7.30;;;6.90;99.90;;;;;;5073518;28;20589;-64
2020/12/17 07:35:01;;;;;;;7.73;6.40;;;7.00;99.90;;;;;;5073143;28;20229;-64
2020/12/17 07:37:38;;;;;;;6.77;5.93;;;7.10;99.90;;;;;;5073728;28;20259;-62
2020/12/17 07:40:15;;;;;;;7.43;5.70;;;7.10;99.90;;;;;;5069422;28;20223;-61
2020/12/17 07:42:41;;;;;;;6.20;5.60;;;7.20;99.90;;;;;;5073405;28;20696;-64
2020/12/17 07:45:08;;;;;;;7.43;6.57;;;7.30;99.90;;;;;;5073036;28;20225;-63
2020/12/17 07:47:34;;;;;;;6.80;6.10;;;7.50;99.90;;;;;;5073227;28;20204;-64
2020/12/17 07:50:01;;;;;;;7.77;6.00;;;7.60;99.90;;;;;;5073111;28;20211;-64
2020/12/17 07:52:29;;;;;;;7.37;6.57;;;7.60;99.90;;;;;;5072889;28;20257;-64
2020/12/17 07:54:55;;;;;;;7.80;5.60;;;7.60;99.90;;;;;;5072899;28;20642;-64
2020/12/17 07:57:21;;;;;;;6.37;5.70;;;7.50;99.90;;;;;;5073308;28;20213;-62
2020/12/17 07:59:47;;;;;;;6.17;4.80;;;7.30;99.90;;;;;;5054455;28;20666;-60
2020/12/17 08:02:14;;;;;;;7.10;5.53;;;7.30;99.90;;;;;;5052735;28;20286;-60
2020/12/17 08:04:45;;;;;;;7.10;5.97;;;7.40;99.90;;;;;;5052221;28;20240;-64
2020/12/17 08:07:12;;;;;;;7.63;5.63;;;7.50;99.90;;;;;;5052915;28;20205;-65
2020/12/17 08:09:38;;;;;;;7.43;5.50;;;7.70;99.90;;;;;;5052672;28;20625;-62
2020/12/17 08:12:09;;;;;;;5.97;5.10;;;8.00;99.90;;;;;;5053512;28;20213;-67
2020/12/17 08:14:36;;;;;;;7.40;5.60;;;8.20;99.90;;;;;;5053939;28;20241;-67
2020/12/17 08:17:06;;;;;;;7.43;5.43;;;8.30;99.90;;;;;;5054353;28;20685;-68
2020/12/17 08:19:33;;;;;;;5.93;5.10;;;8.50;99.90;;;;;;5054139;28;20208;-68
2020/12/17 08:22:00;;;;;;;6.13;4.70;;;8.70;99.90;;;;;;5054539;28;20693;-68
2020/12/17 08:24:28;;;;;;;6.27;4.80;;;8.80;99.90;;;;;;5054123;28;20260;-61
2020/12/17 08:26:54;;;;;;;7.63;5.27;;;8.90;99.90;;;;;;5052904;28;20210;-65
2020/12/17 08:29:22;;;;;;;7.30;5.80;;;9.00;99.90;;;;;;5052616;28;20231;-65
2020/12/17 08:31:48;;;;;;;6.47;4.83;;;9.10;99.90;;;;;;5052643;28;20205;-64
2020/12/17 08:34:15;;;;;;;5.23;4.60;;;9.20;99.90;;;;;;5052407;28;20226;-64
2020/12/17 08:36:41;;;;;;;5.37;4.43;;;9.00;99.90;;;;;;5052937;28;20209;-64
2020/12/17 08:39:09;;;;;;;5.70;4.37;;;9.00;99.90;;;;;;5053521;28;20626;-65
2020/12/17 08:41:39;;;;;;;5.97;4.40;;;8.90;99.90;;;;;;5054031;28;20207;-64
2020/12/17 08:44:07;;;;;;;5.50;4.70;;;9.00;99.90;;;;;;5052858;28;20232;-65
2020/12/17 08:46:35;;;;;;;5.53;4.20;;;9.20;99.90;;;;;;5051947;28;20351;-64
2020/12/17 08:49:04;;;;;;;5.63;3.90;;;9.40;99.90;;;;;;5051901;28;20659;-65
2020/12/17 08:51:31;;;;;;;4.50;3.97;;;9.60;99.90;;;;;;5052034;28;20212;-65
2020/12/17 08:53:57;;;;;;;4.97;3.97;;;9.80;99.90;;;;;;5051466;28;20706;-64
2020/12/17 08:56:24;;;;;;;5.77;3.23;;;10.00;99.90;;;;;;5052333;28;20206;-65
2020/12/17 08:58:53;;;;;;;4.63;3.27;;;10.10;99.90;;;;;;5051897;28;20205;-64
2020/12/17 09:01:27;;;;;;;5.43;3.20;;;10.10;99.90;;;;;;5052104;28;20206;-65
2020/12/17 09:03:54;;;;;;;8.23;4.37;;;10.30;99.90;;;;;;5051873;28;20381;-64
2020/12/17 09:06:29;;;;;;;5.03;3.73;;;10.40;99.90;;;;;;5051412;28;20210;-65
2020/12/17 09:09:11;;;;;;;5.57;3.97;;;10.40;99.90;;;;;;5051583;28;20322;-64
2020/12/17 09:11:38;;;;;;;5.60;3.63;;;10.40;99.90;;;;;;5051531;28;20201;-64
2020/12/17 09:14:07;;;;;;;4.60;3.57;;;10.50;99.90;;;;;;5051366;28;20225;-65
2020/12/17 09:16:36;;;;;;;5.43;3.40;;;10.50;99.90;;;;;;5051584;28;20221;-65
2020/12/17 09:19:07;;;;;;;5.07;3.10;;;10.60;99.90;;;;;;5051296;28;20217;-67
2020/12/17 09:21:34;;;;;;;3.60;2.83;;;10.80;99.90;;;;;;5051662;28;20591;-65
2020/12/17 09:24:01;;;;;;;5.33;3.30;;;10.90;99.90;;;;;;5051165;28;20264;-66
2020/12/17 09:26:28;;;;;;;3.97;2.77;;;11.00;99.90;;;;;;5050972;28;20209;-65
2020/12/17 09:28:57;;;;;;;4.77;3.27;;;11.20;99.90;;;;;;5050707;28;20484;-64
2020/12/17 09:31:27;;;;;;;4.17;3.40;;;11.20;99.90;;;;;;5051075;28;20212;-60
2020/12/17 09:34:13;;;;;;;5.00;2.83;;;11.40;99.90;;;;;;5051251;28;20272;-69
2020/12/17 09:36:42;;;;;;;3.27;2.87;;;11.40;99.90;;;;;;5052061;28;20209;-64
2020/12/17 09:39:12;;;;;;;3.07;2.73;;;11.50;99.90;;;;;;5051882;28;20704;-64
2020/12/17 09:41:38;;;;;;;5.60;3.00;;;11.30;99.90;;;;;;5051684;28;20202;-64
2020/12/17 09:44:04;;;;;;;4.83;2.63;;;11.10;99.90;;;;;;5034423;28;20221;-64
2020/12/17 09:46:45;;;;;;;3.60;2.70;;;10.90;99.90;;;;;;5051960;28;20206;-64
2020/12/17 09:49:25;;;;;;;3.00;2.70;;;10.90;99.90;;;;;;5051639;28;20266;-64
2020/12/17 09:52:03;;;;;;;5.77;2.87;;;10.90;99.90;;;;;;5052086;28;20201;-64
2020/12/17 09:54:29;;;;;;;3.93;2.50;;;10.90;99.90;;;;;;5051750;28;20897;-64
2020/12/17 09:57:04;;;;;;;4.03;2.87;;;11.00;99.90;;;;;;5052584;28;20209;-64
2020/12/17 09:59:30;;;;;;;4.03;2.60;;;10.80;99.90;;;;;;5051277;28;20708;-64
2020/12/17 10:01:58;;;;;;;3.47;2.73;;;10.80;99.90;;;;;;5051546;28;20221;-64
2020/12/17 10:04:24;;;;;;;3.83;2.70;;;10.90;99.90;;;;;;5051286;28;20261;-64
2020/12/17 10:06:50;;;;;;;5.43;3.50;;;10.80;99.90;;;;;;5051493;28;20206;-64
2020/12/17 10:09:16;;;;;;;3.50;2.30;;;10.80;99.90;;;;;;5051187;28;20811;-64
2020/12/17 10:11:46;;;;;;;2.63;2.43;;;10.80;99.90;;;;;;5051694;28;20206;-64
2020/12/17 10:14:12;;;;;;;4.63;2.43;;;10.70;99.90;;;;;;5051968;28;20291;-65
2020/12/17 10:16:39;;;;;;;2.77;2.40;;;10.70;99.90;;;;;;5051147;28;20214;-63
2020/12/17 10:19:06;;;;;;;4.27;2.60;;;10.80;99.90;;;;;;5051687;28;20202;-63
2020/12/17 10:21:32;;;;;;;2.60;2.40;;;10.90;99.90;;;;;;5052002;28;20286;-64
2020/12/17 10:23:58;;;;;;;4.37;2.50;;;11.00;99.90;;;;;;5051274;28;20236;-64
2020/12/17 10:26:24;;;;;;;5.47;2.73;;;11.10;99.90;;;;;;5051169;28;20205;-63
2020/12/17 10:28:50;;;;;;;7.57;2.50;;;11.30;99.90;;;;;;5051359;28;20214;-64
2020/12/17 10:31:17;;;;;;;3.23;2.30;;;11.40;99.90;;;;;;5051873;28;20642;-65
2020/12/17 10:33:43;;;;;;;3.70;2.40;;;11.50;99.90;;;;;;5050542;28;20796;-64
2020/12/17 10:36:10;;;;;;;4.20;2.20;;;11.90;99.90;;;;;;5051741;28;20361;-64
2020/12/17 10:38:36;;;;;;;4.77;2.37;;;12.30;99.90;;;;;;5052867;28;20209;-65
2020/12/17 10:41:03;;;;;;;3.33;2.57;;;12.60;99.90;;;;;;5051986;28;20623;-64
2020/12/17 10:43:29;;;;;;;3.53;2.40;;;12.80;99.90;;;;;;5052840;28;20233;-65
2020/12/17 10:45:55;;;;;;;4.17;2.40;;;12.80;99.90;;;;;;5052479;28;20209;-65
2020/12/17 10:48:21;;;;;;;4.83;2.13;;;12.90;99.90;;;;;;5052503;28;20201;-65
2020/12/17 10:50:48;;;;;;;4.00;2.50;;;13.00;99.90;;;;;;5052700;28;20232;-65
2020/12/17 10:53:15;;;;;;;2.97;2.27;;;13.00;99.90;;;;;;5052827;28;20252;-65
2020/12/17 10:55:42;;;;;;;3.43;2.20;;;13.00;99.90;;;;;;5051857;28;20229;-65
2020/12/17 10:58:08;;;;;;;20.87;13.33;;;13.00;99.90;;;;;;5051891;28;20205;-65
2020/12/17 11:00:34;;;;;;;8.27;5.37;;;12.90;99.90;;;;;;5052239;28;20212;-65
2020/12/17 11:03:01;;;;;;;5.50;3.43;;;12.70;99.90;;;;;;5052134;28;20538;-65
2020/12/17 11:05:27;;;;;;;2.93;2.30;;;12.60;99.90;;;;;;5052003;28;20248;-65
2020/12/17 11:07:53;;;;;;;7.10;2.80;;;12.60;99.90;;;;;;5051734;28;20217;-65
2020/12/17 11:10:20;;;;;;;4.97;3.10;;;12.70;99.90;;;;;;5053151;28;20209;-65
2020/12/17 11:12:47;;;;;;;8.23;5.73;;;12.70;99.90;;;;;;5054430;28;20206;-65
2020/12/17 11:15:13;;;;;;;2.80;2.17;;;12.70;99.90;;;;;;5053681;28;20666;-65
2020/12/17 11:17:39;;;;;;;3.87;2.43;;;12.70;99.90;;;;;;5051891;28;20268;-65
2020/12/17 11:20:06;;;;;;;3.30;2.40;;;12.80;99.90;;;;;;5051951;28;20210;-65
2020/12/17 11:22:32;;;;;;;3.83;2.70;;;12.90;99.90;;;;;;5052022;28;20485;-65
2020/12/17 11:24:58;;;;;;;2.93;2.30;;;12.90;99.90;;;;;;5050278;28;20225;-65
2020/12/17 11:27:25;;;;;;;4.37;2.80;;;13.20;99.90;;;;;;5052929;28;20212;-62
2020/12/17 11:29:51;;;;;;;2.87;2.27;;;13.30;99.90;;;;;;5069826;28;20212;-65
2020/12/17 11:32:20;;;;;;;5.57;2.73;;;13.50;99.90;;;;;;5073643;28;20546;-65
2020/12/17 11:34:46;;;;;;;4.20;2.50;;;13.50;99.90;;;;;;5073792;28;20229;-64
2020/12/17 11:37:13;;;;;;;5.20;2.90;;;13.50;99.90;;;;;;5073682;28;20258;-62
2020/12/17 11:39:39;;;;;;;4.57;3.47;;;13.40;99.90;;;;;;5073940;28;20228;-61
2020/12/17 11:42:06;;;;;;;7.20;3.00;;;13.40;99.90;;;;;;5073691;28;20221;-63
2020/12/17 11:44:33;;;;;;;5.83;3.00;;;13.50;99.90;;;;;;5072822;28;20225;-62
2020/12/17 11:46:59;;;;;;;4.30;3.43;;;13.60;99.90;;;;;;5073364;28;20220;-61
2020/12/17 11:49:25;;;;;;;4.57;3.30;;;13.70;99.90;;;;;;5073356;28;20208;-66
2020/12/17 11:51:52;;;;;;;22.13;16.70;;;13.70;99.90;;;;;;5073514;28;20205;-64
2020/12/17 11:54:18;;;;;;;5.00;3.57;;;13.80;99.90;;;;;;5072855;28;20704;-63
2020/12/17 11:56:46;;;;;;;5.07;3.00;;;13.80;99.90;;;;;;5073961;28;20266;-63
2020/12/17 11:59:12;;;;;;;4.03;3.00;;;13.90;99.90;;;;;;5073385;28;20205;-64
2020/12/17 12:01:41;;;;;;;5.75;3.53;;;14.10;99.90;;;;;;5072917;28;20465;-62
2020/12/17 12:04:08;;;;;;;7.53;3.97;;;14.20;99.90;;;;;;5072717;28;20240;-63
2020/12/17 12:06:34;;;;;;;6.10;3.73;;;14.30;99.90;;;;;;5073263;28;20291;-63
2020/12/17 12:09:00;;;;;;;4.63;3.30;;;14.40;99.90;;;;;;5073033;28;20205;-63
2020/12/17 12:11:27;;;;;;;5.63;3.77;;;14.40;99.90;;;;;;5072915;28;20671;-62
2020/12/17 12:13:53;;;;;;;7.53;3.57;;;14.40;99.90;;;;;;5071649;28;20221;-60
2020/12/17 12:16:20;;;;;;;5.87;3.50;;;14.50;99.90;;;;;;5072684;28;20586;-59
2020/12/17 12:18:48;;;;;;;9.93;3.53;;;14.50;99.90;;;;;;5072465;28;20208;-61
2020/12/17 12:21:15;;;;;;;5.30;3.30;;;14.60;99.90;;;;;;5072927;28;20374;-61
2020/12/17 12:23:42;;;;;;;7.80;4.90;;;14.60;99.90;;;;;;5072164;28;20220;-65
2020/12/17 12:26:09;;;;;;;8.30;3.20;;;14.60;99.90;;;;;;5072345;28;20231;-63
2020/12/17 12:28:35;;;;;;;8.00;3.27;;;14.60;99.90;;;;;;5072658;28;20760;-63
2020/12/17 12:31:03;;;;;;;7.07;3.70;;;14.50;99.90;;;;;;5072548;28;20205;-64
2020/12/17 12:33:29;;;;;;;6.27;3.70;;;14.40;99.90;;;;;;5072126;28;20278;-62
2020/12/17 12:35:56;;;;;;;8.67;3.80;;;14.20;99.90;;;;;;5072260;28;20213;-61
2020/12/17 12:38:22;;;;;;;5.27;4.00;;;14.20;99.90;;;;;;5071241;28;20395;-62
2020/12/17 12:40:48;;;;;;;8.13;4.27;;;14.10;99.90;;;;;;5071718;28;20201;-64
2020/12/17 12:43:15;;;;;;;5.53;4.03;;;14.00;99.90;;;;;;5072103;28;20228;-63
2020/12/17 12:45:41;;;;;;;8.33;4.60;;;13.90;99.90;;;;;;5071883;28;20225;-64
2020/12/17 12:48:07;;;;;;;8.03;4.50;;;13.80;99.90;;;;;;5072031;28;20205;-61